Time;durP1;ratioP1;P1;durP2;ratioP2;P2;SDS_P1;SDS_P2;PMS_P1;PMS_P2;Temp;Humidity;BMP_temperature;BMP_pressure;BME280_temperature;BME280_humidity;BME280_pressure;Samples;Min_cycle;Max_cycle;Signal;HPM_P1;HPM_P2
2022/12/29 00:02:14;;;;;;;4.20;2.38;;;10.60;99.90;;;;;;5035639;28;20057;-70
2022/12/29 00:04:39;;;;;;;2.60;1.70;;;10.70;99.90;;;;;;5052935;28;20044;-70
2022/12/29 00:07:05;;;;;;;3.50;1.92;;;10.70;99.90;;;;;;5052085;28;20128;-70
2022/12/29 00:09:32;;;;;;;3.72;2.28;;;10.70;99.90;;;;;;5036366;28;20047;-70
2022/12/29 00:11:58;;;;;;;5.30;2.70;;;10.70;99.90;;;;;;5052806;28;20528;-70
2022/12/29 00:17:08;;;;;;;4.97;2.25;;;10.70;99.90;;;;;;5050708;28;20041;-70
2022/12/29 00:36:16;;;;;;;4.07;2.13;;;10.70;99.90;;;;;;5049702;28;20497;-71
2022/12/29 00:44:17;;;;;;;4.25;2.60;;;10.90;99.90;;;;;;5038050;28;20053;-70
2022/12/29 00:46:43;;;;;;;5.03;2.40;;;10.80;99.90;;;;;;5055875;28;20516;-70
2022/12/29 00:49:30;;;;;;;3.40;1.80;;;10.80;99.90;;;;;;5035579;28;20033;-70
2022/12/29 00:52:07;;;;;;;4.72;2.63;;;10.80;99.90;;;;;;5028312;28;20035;-70
2022/12/29 00:54:35;;;;;;;6.25;2.70;;;10.80;99.90;;;;;;5033908;28;20051;-70
2022/12/29 00:57:01;;;;;;;4.53;2.88;;;10.80;99.90;;;;;;5034517;28;20047;-70
2022/12/29 00:59:27;;;;;;;5.13;3.05;;;10.80;99.90;;;;;;5052032;28;20048;-70
2022/12/29 01:01:54;;;;;;;5.47;2.63;;;10.80;99.90;;;;;;5051405;28;20040;-70
2022/12/29 01:04:21;;;;;;;4.13;2.28;;;10.80;99.90;;;;;;5034805;28;20496;-70
2022/12/29 01:06:47;;;;;;;5.47;2.80;;;10.80;99.90;;;;;;5034374;28;20079;-70
2022/12/29 01:11:57;;;;;;;5.95;3.00;;;10.90;99.90;;;;;;5051970;28;20037;-71
2022/12/29 01:14:23;;;;;;;4.85;2.53;;;10.90;99.90;;;;;;5032975;28;20382;-70
2022/12/29 01:16:49;;;;;;;5.45;2.63;;;10.90;99.90;;;;;;5039354;28;20497;-70
2022/12/29 01:19:15;;;;;;;6.22;2.40;;;10.90;99.90;;;;;;5034897;28;20397;-70
2022/12/29 01:21:41;;;;;;;5.60;2.97;;;10.90;99.90;;;;;;5051958;28;20455;-70
2022/12/29 01:24:07;;;;;;;4.95;2.90;;;10.90;99.90;;;;;;5051217;28;20044;-70
2022/12/29 01:26:32;;;;;;;6.10;3.15;;;10.90;99.90;;;;;;5050806;28;20066;-70
2022/12/29 01:28:58;;;;;;;5.88;2.78;;;10.90;99.90;;;;;;5051774;28;20394;-70
2022/12/29 01:31:23;;;;;;;5.57;2.67;;;10.90;99.90;;;;;;5050136;28;20048;-71
2022/12/29 01:33:49;;;;;;;5.45;2.88;;;10.90;99.90;;;;;;5051151;28;20378;-70
2022/12/29 01:36:17;;;;;;;6.30;3.15;;;10.90;99.90;;;;;;5050736;28;20047;-71
2022/12/29 01:38:42;;;;;;;5.90;2.85;;;10.90;99.90;;;;;;5051640;28;20076;-71
2022/12/29 01:41:10;;;;;;;5.32;2.40;;;10.90;99.90;;;;;;5051622;28;20185;-71
2022/12/29 01:43:43;;;;;;;4.95;2.67;;;10.90;99.90;;;;;;5033546;28;20037;-70
2022/12/29 01:46:31;;;;;;;4.40;1.98;;;10.90;99.90;;;;;;5045981;28;20394;-71
2022/12/29 01:49:16;;;;;;;4.63;2.42;;;10.90;99.90;;;;;;5031804;28;20047;-70
2022/12/29 01:51:51;;;;;;;5.00;2.70;;;11.00;99.90;;;;;;5031561;28;20040;-70
2022/12/29 01:54:21;;;;;;;4.50;2.60;;;11.00;99.90;;;;;;5032833;28;20041;-70
2022/12/29 01:56:47;;;;;;;4.43;2.40;;;10.90;99.90;;;;;;5050845;28;20099;-70
2022/12/29 01:59:20;;;;;;;4.47;2.30;;;11.00;99.90;;;;;;5032965;28;20036;-71
2022/12/29 02:01:46;;;;;;;5.13;2.85;;;11.00;99.90;;;;;;5026565;28;20069;-71
2022/12/29 02:04:12;;;;;;;5.55;2.50;;;10.90;99.90;;;;;;5031545;28;20501;-71
2022/12/29 02:06:47;;;;;;;5.68;2.38;;;11.00;99.90;;;;;;5037986;28;20045;-70
2022/12/29 02:09:12;;;;;;;4.85;2.22;;;11.00;99.90;;;;;;5050510;28;20045;-70
2022/12/29 02:11:39;;;;;;;4.63;2.50;;;11.00;99.90;;;;;;5050578;28;20064;-70
2022/12/29 02:14:14;;;;;;;3.20;1.50;;;11.00;99.90;;;;;;5034713;28;20091;-71
2022/12/29 02:16:52;;;;;;;3.53;1.90;;;11.00;99.90;;;;;;5049175;28;20045;-71
2022/12/29 02:19:48;;;;;;;5.43;2.38;;;11.10;99.90;;;;;;5035346;28;20049;-71
2022/12/29 02:22:26;;;;;;;3.58;1.75;;;11.10;99.90;;;;;;5035115;28;20045;-71
2022/12/29 02:24:57;;;;;;;4.97;2.60;;;11.20;99.90;;;;;;5049800;28;20497;-70
2022/12/29 02:27:49;;;;;;;6.22;1.63;;;11.10;99.90;;;;;;5070623;28;20405;-71
2022/12/29 02:30:34;;;;;;;4.50;1.92;;;11.20;99.90;;;;;;5054768;28;20045;-71
2022/12/29 02:33:10;;;;;;;1.85;1.20;;;11.20;99.90;;;;;;5035908;28;20045;-71
2022/12/29 02:35:59;;;;;;;2.30;1.20;;;11.20;99.90;;;;;;5038168;28;20041;-71
2022/12/29 02:38:31;;;;;;;3.78;1.75;;;11.20;99.90;;;;;;5053735;28;20068;-71
2022/12/29 02:41:16;;;;;;;2.83;1.33;;;11.20;99.90;;;;;;5037987;28;20049;-71
2022/12/29 02:43:52;;;;;;;3.40;1.88;;;11.10;99.90;;;;;;5037369;28;20067;-71
2022/12/29 02:46:27;;;;;;;3.70;1.80;;;11.20;99.90;;;;;;5037110;28;20080;-71
2022/12/29 02:49:05;;;;;;;2.17;1.10;;;11.10;99.90;;;;;;5054505;28;20174;-70
2022/12/29 02:51:52;;;;;;;2.83;1.65;;;11.10;99.90;;;;;;5054484;28;20044;-71
2022/12/29 02:57:14;;;;;;;2.97;1.23;;;11.10;99.90;;;;;;5053280;28;20041;-70
2022/12/29 02:59:41;;;;;;;4.32;1.88;;;11.10;99.90;;;;;;5054277;28;20043;-70
2022/12/29 03:02:24;;;;;;;2.28;1.25;;;11.10;99.90;;;;;;5036330;28;20069;-71
2022/12/29 03:05:17;;;;;;;2.28;1.20;;;11.10;99.90;;;;;;5036183;28;20041;-70
2022/12/29 03:07:51;;;;;;;3.05;1.55;;;11.10;99.90;;;;;;5036818;28;20408;-70
2022/12/29 03:11:03;;;;;;;2.85;1.33;;;11.10;99.90;;;;;;5037484;28;20041;-71
2022/12/29 03:16:39;;;;;;;2.92;1.40;;;11.10;99.90;;;;;;5052408;28;20452;-71
2022/12/29 03:19:19;;;;;;;2.42;1.10;;;11.20;99.90;;;;;;5053949;28;20485;-71
2022/12/29 03:24:40;;;;;;;1.33;0.90;;;11.20;99.90;;;;;;5037324;28;20053;-70
2022/12/29 03:27:09;;;;;;;2.10;1.17;;;11.20;99.90;;;;;;5047900;28;20037;-70
2022/12/29 03:29:39;;;;;;;1.80;0.82;;;11.10;99.90;;;;;;5046308;28;20041;-70
2022/12/29 03:32:06;;;;;;;1.13;0.60;;;11.20;99.90;;;;;;5034180;28;20036;-71
2022/12/29 03:34:34;;;;;;;2.17;0.90;;;11.20;99.90;;;;;;5051567;28;20033;-70
2022/12/29 03:37:06;;;;;;;2.40;1.25;;;11.10;99.90;;;;;;5045716;28;20489;-71
2022/12/29 03:39:32;;;;;;;1.00;0.90;;;11.10;99.90;;;;;;5045186;28;20037;-70
2022/12/29 03:42:10;;;;;;;1.73;1.00;;;11.10;99.90;;;;;;5051516;28;20047;-71
2022/12/29 03:44:38;;;;;;;1.70;0.90;;;11.10;99.90;;;;;;5052741;28;20413;-71
2022/12/29 03:47:05;;;;;;;2.10;1.08;;;11.00;99.90;;;;;;5050645;28;20052;-70
2022/12/29 03:49:31;;;;;;;2.30;1.10;;;11.00;99.90;;;;;;5052363;28;20044;-71
2022/12/29 03:51:57;;;;;;;1.30;0.95;;;11.00;99.90;;;;;;5051296;28;20029;-70
2022/12/29 03:54:22;;;;;;;4.05;1.02;;;11.00;99.90;;;;;;5040194;28;20037;-71
2022/12/29 03:56:48;;;;;;;4.55;1.42;;;11.10;99.90;;;;;;5039801;28;20120;-71
2022/12/29 03:59:13;;;;;;;3.03;1.20;;;11.00;99.90;;;;;;5028702;28;20107;-71
2022/12/29 04:01:39;;;;;;;2.65;1.00;;;11.10;99.90;;;;;;5033940;28;20580;-70
2022/12/29 04:04:05;;;;;;;2.95;1.13;;;11.10;99.90;;;;;;5035482;28;20420;-70
2022/12/29 04:06:30;;;;;;;1.20;0.90;;;11.10;99.90;;;;;;5035495;28;20045;-71
2022/12/29 04:08:56;;;;;;;1.80;0.80;;;11.10;99.90;;;;;;5045279;28;20038;-70
2022/12/29 04:11:23;;;;;;;3.53;1.08;;;11.00;99.90;;;;;;5041492;28;20523;-70
2022/12/29 04:13:48;;;;;;;3.45;1.35;;;11.10;99.90;;;;;;5034824;28;20497;-71
2022/12/29 04:16:14;;;;;;;3.85;1.10;;;11.10;99.90;;;;;;5033881;28;20048;-70
2022/12/29 04:18:40;;;;;;;2.33;1.02;;;11.00;99.90;;;;;;5048250;28;20460;-70
2022/12/29 04:21:06;;;;;;;6.38;1.33;;;11.00;99.90;;;;;;5035146;28;20041;-70
2022/12/29 04:23:34;;;;;;;2.90;0.90;;;10.90;99.90;;;;;;5023438;28;20067;-70
2022/12/29 04:26:00;;;;;;;2.03;1.08;;;11.00;99.90;;;;;;5036287;28;20445;-71
2022/12/29 04:28:26;;;;;;;2.33;1.25;;;11.00;99.90;;;;;;5040395;28;20048;-71
2022/12/29 04:30:51;;;;;;;1.67;0.82;;;10.90;99.90;;;;;;5036114;28;20485;-70
2022/12/29 04:33:17;;;;;;;3.33;0.90;;;10.90;99.90;;;;;;5051290;28;20045;-70
2022/12/29 04:35:43;;;;;;;3.88;0.90;;;11.00;99.90;;;;;;5051469;28;20037;-70
2022/12/29 04:38:09;;;;;;;0.73;0.50;;;10.90;99.90;;;;;;5049393;28;20088;-70
2022/12/29 04:40:35;;;;;;;2.45;0.70;;;10.90;99.90;;;;;;5035902;28;20047;-71
2022/12/29 04:43:01;;;;;;;0.55;0.50;;;10.90;99.90;;;;;;5032600;28;20029;-70
2022/12/29 04:45:26;;;;;;;2.42;0.70;;;10.90;99.90;;;;;;5033239;28;20037;-71
2022/12/29 04:47:52;;;;;;;1.13;0.80;;;10.70;99.90;;;;;;5034886;28;20456;-70
2022/12/29 04:50:17;;;;;;;2.28;0.70;;;10.70;99.90;;;;;;5033783;28;20075;-70
2022/12/29 04:52:43;;;;;;;2.58;0.75;;;10.70;99.90;;;;;;5050424;28;20429;-70
2022/12/29 04:55:09;;;;;;;1.67;0.60;;;10.60;99.90;;;;;;5050635;28;20124;-71
2022/12/29 04:57:34;;;;;;;2.13;0.70;;;10.60;99.90;;;;;;5066960;28;20071;-71
2022/12/29 05:00:00;;;;;;;1.75;0.77;;;10.70;99.90;;;;;;5049444;28;20032;-70
2022/12/29 05:02:25;;;;;;;2.05;0.70;;;10.70;99.90;;;;;;5032923;28;20086;-70
2022/12/29 05:04:51;;;;;;;4.70;0.90;;;10.60;99.90;;;;;;5036278;28;20044;-70
2022/12/29 05:07:16;;;;;;;3.30;0.82;;;10.60;99.90;;;;;;5044164;28;20095;-70
2022/12/29 05:09:42;;;;;;;1.40;0.50;;;10.50;99.90;;;;;;5032903;28;20090;-70
2022/12/29 05:12:08;;;;;;;3.33;1.30;;;10.60;99.90;;;;;;5051915;28;20124;-71
2022/12/29 05:14:33;;;;;;;3.97;0.90;;;10.50;99.90;;;;;;5050944;28;20033;-70
2022/12/29 05:16:59;;;;;;;4.32;1.00;;;10.50;99.90;;;;;;5035531;28;20099;-71
2022/12/29 05:19:24;;;;;;;2.35;0.65;;;10.50;99.90;;;;;;5033765;28;20501;-70
2022/12/29 05:21:50;;;;;;;5.65;1.00;;;10.50;99.90;;;;;;5049196;28;20504;-71
2022/12/29 05:24:15;;;;;;;5.75;1.20;;;10.50;99.90;;;;;;5047959;28;20032;-70
2022/12/29 05:26:41;;;;;;;3.95;0.90;;;10.50;99.90;;;;;;5033419;28;20072;-70
2022/12/29 05:29:07;;;;;;;4.78;1.27;;;10.40;99.90;;;;;;5048714;28;20040;-71
2022/12/29 05:31:35;;;;;;;6.72;1.35;;;10.30;99.90;;;;;;5051015;28;20037;-71
2022/12/29 05:34:01;;;;;;;3.15;1.35;;;10.30;99.90;;;;;;5063807;28;20069;-71
2022/12/29 05:36:26;;;;;;;3.38;0.93;;;10.30;99.90;;;;;;5052414;28;20126;-70
2022/12/29 05:38:52;;;;;;;7.55;1.25;;;10.40;99.90;;;;;;5033825;28;20543;-71
2022/12/29 05:41:17;;;;;;;3.63;0.85;;;10.40;99.90;;;;;;5034440;28;20037;-70
2022/12/29 05:43:43;;;;;;;7.68;1.48;;;10.40;99.90;;;;;;5028453;28;20036;-71
2022/12/29 05:46:09;;;;;;;7.28;1.55;;;10.30;99.90;;;;;;5035017;28;20098;-70
2022/12/29 05:48:34;;;;;;;6.00;1.27;;;10.30;99.90;;;;;;5051668;28;20049;-71
2022/12/29 05:51:00;;;;;;;7.32;1.30;;;10.20;99.90;;;;;;5053130;28;20040;-71
2022/12/29 05:53:25;;;;;;;5.00;1.30;;;10.20;99.90;;;;;;5034727;28;20033;-70
2022/12/29 05:55:51;;;;;;;5.25;0.90;;;10.30;99.90;;;;;;5038204;28;20123;-70
2022/12/29 05:58:17;;;;;;;5.53;0.80;;;10.20;99.90;;;;;;5051793;28;20059;-70
2022/12/29 06:00:43;;;;;;;3.67;0.90;;;10.20;99.90;;;;;;5052676;28;20052;-70
2022/12/29 06:03:08;;;;;;;6.32;1.00;;;10.30;99.90;;;;;;5047745;28;20072;-70
2022/12/29 06:05:34;;;;;;;4.78;1.10;;;10.20;99.90;;;;;;5055186;28;20405;-71
2022/12/29 06:07:59;;;;;;;6.03;1.00;;;10.20;99.90;;;;;;5036609;28;20048;-71
2022/12/29 06:10:25;;;;;;;7.22;1.17;;;10.20;99.90;;;;;;5037084;28;20041;-71
2022/12/29 06:12:51;;;;;;;4.97;0.80;;;10.20;99.90;;;;;;5052613;28;20029;-71
2022/12/29 06:15:17;;;;;;;6.53;1.15;;;10.20;99.90;;;;;;5053741;28;20501;-71
2022/12/29 06:17:43;;;;;;;3.05;0.82;;;10.30;99.90;;;;;;5054158;28;20413;-71
2022/12/29 06:20:10;;;;;;;3.08;0.82;;;10.30;99.90;;;;;;5037704;28;20033;-71
2022/12/29 06:22:36;;;;;;;4.20;1.10;;;10.20;99.90;;;;;;5053152;28;20041;-71
2022/12/29 06:25:02;;;;;;;6.68;1.35;;;10.20;99.90;;;;;;5033410;28;20033;-71
2022/12/29 06:27:28;;;;;;;5.38;0.75;;;10.20;99.90;;;;;;5048364;28;20061;-71
2022/12/29 06:29:54;;;;;;;5.20;1.42;;;10.10;99.90;;;;;;5052822;28;20048;-71
2022/12/29 06:32:20;;;;;;;5.53;0.95;;;10.10;99.90;;;;;;5052755;28;20029;-71
2022/12/29 06:34:45;;;;;;;7.65;1.13;;;10.10;99.90;;;;;;5051155;28;20043;-71
2022/12/29 06:37:11;;;;;;;6.65;1.17;;;10.20;99.90;;;;;;5020057;28;20029;-71
2022/12/29 06:39:37;;;;;;;5.15;1.08;;;10.20;99.90;;;;;;5052281;28;20033;-71
2022/12/29 06:42:03;;;;;;;5.70;1.45;;;10.20;99.90;;;;;;5053497;28;20030;-72
2022/12/29 06:44:28;;;;;;;6.72;1.60;;;10.10;99.90;;;;;;5037097;28;20091;-71
2022/12/29 06:46:54;;;;;;;8.32;1.20;;;10.20;99.90;;;;;;5051576;28;20048;-71
2022/12/29 06:49:20;;;;;;;8.48;1.65;;;10.10;99.90;;;;;;5037024;28;20041;-71
2022/12/29 06:51:46;;;;;;;5.30;0.88;;;10.00;99.90;;;;;;5052487;28;20049;-71
2022/12/29 06:54:11;;;;;;;7.20;1.60;;;10.10;99.90;;;;;;5036813;28;20035;-71
2022/12/29 06:56:37;;;;;;;6.55;1.13;;;10.10;99.90;;;;;;5048583;28;20124;-71
2022/12/29 06:59:03;;;;;;;5.20;1.13;;;10.10;99.90;;;;;;5034710;28;20062;-70
2022/12/29 07:01:28;;;;;;;5.63;1.48;;;10.10;99.90;;;;;;5050219;28;20037;-71
2022/12/29 07:03:54;;;;;;;3.53;0.80;;;10.10;99.90;;;;;;5053206;28;20052;-71
2022/12/29 07:06:20;;;;;;;5.22;1.05;;;10.10;99.90;;;;;;5051470;28;20080;-70
2022/12/29 07:08:46;;;;;;;4.90;1.30;;;10.10;99.90;;;;;;5051581;28;20489;-71
2022/12/29 07:11:11;;;;;;;3.05;0.85;;;10.10;99.90;;;;;;5053213;28;20028;-71
2022/12/29 07:13:37;;;;;;;5.90;1.45;;;10.10;99.90;;;;;;5052594;28;20038;-71
2022/12/29 07:16:07;;;;;;;8.07;1.45;;;10.10;99.90;;;;;;5044463;28;20029;-71
2022/12/29 07:18:33;;;;;;;5.80;1.20;;;10.10;99.90;;;;;;5047730;28;20033;-71
2022/12/29 07:20:58;;;;;;;5.30;0.85;;;10.10;99.90;;;;;;5053354;28;20029;-70
2022/12/29 07:23:24;;;;;;;9.95;1.63;;;10.10;99.90;;;;;;5044707;28;20029;-70
2022/12/29 07:25:49;;;;;;;9.70;1.88;;;10.00;99.90;;;;;;5035995;28;20405;-71
2022/12/29 07:28:15;;;;;;;3.33;0.90;;;10.10;99.90;;;;;;5068791;28;20040;-71
2022/12/29 07:30:41;;;;;;;7.43;1.50;;;10.10;99.90;;;;;;5034693;28;20033;-70
2022/12/29 07:33:06;;;;;;;8.07;1.58;;;10.20;99.90;;;;;;5036331;28;20103;-70
2022/12/29 07:35:34;;;;;;;5.28;1.40;;;10.20;99.90;;;;;;5052712;28;20040;-71
2022/12/29 07:37:59;;;;;;;8.10;1.85;;;10.10;99.90;;;;;;5045652;28;21573;-71
2022/12/29 07:40:25;;;;;;;9.23;1.83;;;10.20;99.90;;;;;;5047697;28;20086;-70
2022/12/29 07:42:50;;;;;;;8.63;1.67;;;10.30;99.90;;;;;;5044213;28;20037;-71
2022/12/29 07:45:16;;;;;;;6.53;1.10;;;10.20;99.90;;;;;;5041285;28;20167;-70
2022/12/29 07:47:41;;;;;;;8.70;1.65;;;10.20;99.90;;;;;;5034353;28;20045;-71
2022/12/29 07:50:07;;;;;;;5.80;2.13;;;10.20;99.90;;;;;;5035305;28;20139;-70
2022/12/29 07:52:33;;;;;;;8.60;1.73;;;10.20;99.90;;;;;;5031392;28;20078;-71
2022/12/29 07:54:58;;;;;;;4.38;1.20;;;10.20;99.90;;;;;;5026132;28;20040;-71
2022/12/29 07:57:24;;;;;;;7.00;0.98;;;10.20;99.90;;;;;;5050151;28;20108;-71
2022/12/29 07:59:49;;;;;;;5.47;1.42;;;10.20;99.90;;;;;;5046140;28;20098;-70
2022/12/29 08:02:15;;;;;;;8.65;1.83;;;10.20;99.90;;;;;;5049233;28;20109;-71
2022/12/29 08:04:40;;;;;;;4.82;1.48;;;10.20;99.90;;;;;;5042438;28;20046;-70
2022/12/29 08:07:06;;;;;;;5.85;1.40;;;10.20;99.90;;;;;;5038618;28;20094;-71
2022/12/29 08:09:32;;;;;;;6.97;1.45;;;10.20;99.90;;;;;;5051065;28;20037;-71
2022/12/29 08:11:57;;;;;;;6.60;1.35;;;10.20;99.90;;;;;;5015382;28;20045;-71
2022/12/29 08:14:23;;;;;;;9.70;1.48;;;10.20;99.90;;;;;;5032036;28;20132;-71
2022/12/29 08:16:49;;;;;;;9.98;2.05;;;10.30;99.90;;;;;;5045710;28;20044;-71
2022/12/29 08:19:14;;;;;;;7.20;2.25;;;10.20;99.90;;;;;;5051179;28;20037;-71
2022/12/29 08:21:40;;;;;;;7.43;1.48;;;10.20;99.90;;;;;;5046511;28;20413;-71
2022/12/29 08:24:06;;;;;;;6.28;1.60;;;10.10;99.90;;;;;;5048713;28;20044;-71
2022/12/29 08:26:32;;;;;;;5.50;1.23;;;10.20;99.90;;;;;;5033987;28;20040;-71
2022/12/29 08:28:57;;;;;;;6.45;1.52;;;10.20;99.90;;;;;;5050653;28;20484;-71
2022/12/29 08:31:24;;;;;;;5.95;1.23;;;10.20;99.90;;;;;;5048057;28;20071;-71
2022/12/29 08:33:49;;;;;;;10.63;1.98;;;10.20;99.90;;;;;;5032650;28;20032;-71
2022/12/29 08:36:15;;;;;;;12.20;1.75;;;10.20;99.90;;;;;;5035577;28;20033;-71
2022/12/29 08:38:40;;;;;;;8.88;1.60;;;10.10;99.90;;;;;;5032534;28;20096;-71
2022/12/29 08:41:06;;;;;;;7.93;1.42;;;10.10;99.90;;;;;;5031021;28;20068;-71
2022/12/29 08:43:32;;;;;;;8.77;1.23;;;10.20;99.90;;;;;;5040120;28;20045;-71
2022/12/29 08:45:58;;;;;;;26.00;2.90;;;10.20;99.90;;;;;;5051406;28;20037;-71
2022/12/29 08:48:24;;;;;;;6.30;1.67;;;10.20;99.90;;;;;;5031947;28;20082;-71
2022/12/29 08:50:50;;;;;;;10.15;1.75;;;10.10;99.90;;;;;;5031312;28;20037;-71
2022/12/29 08:53:17;;;;;;;4.68;1.23;;;10.20;99.90;;;;;;5034207;28;20191;-71
2022/12/29 08:55:45;;;;;;;15.38;2.25;;;10.20;99.90;;;;;;5033720;28;20089;-71
2022/12/29 08:58:14;;;;;;;8.35;2.50;;;10.20;99.90;;;;;;5050653;28;20041;-72
2022/12/29 09:00:40;;;;;;;13.48;2.00;;;10.20;99.90;;;;;;5032287;28;20033;-70
2022/12/29 09:03:06;;;;;;;8.52;1.83;;;10.20;99.90;;;;;;5033150;28;20390;-71
2022/12/29 09:05:31;;;;;;;8.07;1.60;;;10.30;99.90;;;;;;5050716;28;20048;-71
2022/12/29 09:07:57;;;;;;;16.02;2.88;;;10.30;99.90;;;;;;5042229;28;20128;-71
2022/12/29 09:10:23;;;;;;;7.35;1.80;;;10.20;99.90;;;;;;5031839;28;20046;-71
2022/12/29 09:12:49;;;;;;;8.52;1.40;;;10.30;99.90;;;;;;5033144;28;20025;-72
2022/12/29 09:15:15;;;;;;;6.43;1.50;;;10.20;99.90;;;;;;5049463;28;20044;-71
2022/12/29 09:17:44;;;;;;;5.93;1.23;;;10.20;99.90;;;;;;5044131;28;20044;-71
2022/12/29 09:20:15;;;;;;;9.85;1.23;;;10.20;99.90;;;;;;5039958;28;20489;-70
2022/12/29 09:22:40;;;;;;;5.95;1.30;;;10.10;99.90;;;;;;5033689;28;20048;-72
2022/12/29 09:25:06;;;;;;;17.05;1.67;;;10.00;99.90;;;;;;5033772;28;20045;-71
2022/12/29 09:27:32;;;;;;;10.77;1.83;;;10.00;99.90;;;;;;5032801;28;20037;-71
2022/12/29 09:29:58;;;;;;;9.43;2.42;;;9.90;99.90;;;;;;5040754;28;20109;-71
2022/12/29 09:32:23;;;;;;;4.03;1.75;;;10.00;99.90;;;;;;5028849;28;20041;-72
2022/12/29 09:34:49;;;;;;;9.32;1.45;;;10.00;99.90;;;;;;5051242;28;20408;-71
2022/12/29 09:37:14;;;;;;;10.50;1.67;;;9.90;99.90;;;;;;5028442;28;20036;-72
2022/12/29 09:39:40;;;;;;;8.07;1.48;;;9.90;99.90;;;;;;5036524;28;20502;-71
2022/12/29 09:42:19;;;;;;;8.25;1.20;;;10.00;99.90;;;;;;5046296;28;20041;-71
2022/12/29 09:45:13;;;;;;;4.00;1.50;;;10.00;99.90;;;;;;5050377;28;20037;-71
2022/12/29 09:47:42;;;;;;;8.05;1.83;;;10.00;99.90;;;;;;5048678;28;20047;-71
2022/12/29 09:50:08;;;;;;;11.23;2.00;;;10.00;99.90;;;;;;5050521;28;20064;-71
2022/12/29 09:52:52;;;;;;;15.00;2.78;;;10.00;99.90;;;;;;5033591;28;20029;-73
2022/12/29 09:55:22;;;;;;;9.23;1.92;;;10.00;99.90;;;;;;5033698;28;20041;-73
2022/12/29 09:57:56;;;;;;;7.40;1.42;;;10.00;99.90;;;;;;5065410;28;20080;-75
2022/12/29 10:00:36;;;;;;;5.93;1.30;;;10.10;99.90;;;;;;5047278;28;20388;-71
2022/12/29 10:03:13;;;;;;;5.30;1.52;;;10.10;99.90;;;;;;5043942;28;20062;-71
2022/12/29 10:06:02;;;;;;;7.38;1.17;;;10.10;99.90;;;;;;5050900;28;20053;-71
2022/12/29 10:08:45;;;;;;;8.02;1.40;;;10.10;99.90;;;;;;5048473;28;20049;-71
2022/12/29 10:11:29;;;;;;;6.60;1.42;;;9.90;99.90;;;;;;5049960;28;20037;-71
2022/12/29 10:14:12;;;;;;;4.63;1.35;;;10.00;99.90;;;;;;5050206;28;20546;-71
2022/12/29 10:17:10;;;;;;;3.20;0.80;;;10.00;99.90;;;;;;5043568;28;20069;-71
2022/12/29 10:20:03;;;;;;;7.88;1.40;;;9.90;99.90;;;;;;4988146;28;20080;-71
2022/12/29 10:22:38;;;;;;;6.53;0.98;;;9.90;99.90;;;;;;5022836;28;20048;-71
2022/12/29 10:25:22;;;;;;;5.35;1.17;;;9.80;99.90;;;;;;5014516;28;20191;-71
2022/12/29 10:27:49;;;;;;;7.80;1.40;;;9.80;99.90;;;;;;5015489;28;20382;-71
2022/12/29 10:30:16;;;;;;;7.97;1.80;;;9.80;99.90;;;;;;5028955;28;20037;-70
2022/12/29 10:32:47;;;;;;;5.60;1.65;;;9.80;99.90;;;;;;5034288;28;20163;-71
2022/12/29 10:35:22;;;;;;;9.38;1.38;;;9.70;99.90;;;;;;5024020;28;20064;-71
2022/12/29 10:38:10;;;;;;;5.72;1.50;;;9.70;99.90;;;;;;5053161;28;20029;-71
2022/12/29 10:40:51;;;;;;;7.90;1.45;;;9.70;99.90;;;;;;5064984;28;20061;-71
2022/12/29 10:43:47;;;;;;;7.43;1.85;;;9.70;99.90;;;;;;5029925;28;20042;-71
2022/12/29 10:46:23;;;;;;;7.35;1.77;;;9.60;99.90;;;;;;5013025;28;20140;-71
2022/12/29 10:48:48;;;;;;;8.55;1.77;;;9.60;99.90;;;;;;5041554;28;20080;-70
2022/12/29 10:51:29;;;;;;;6.15;1.35;;;9.70;99.90;;;;;;5025596;28;20453;-70
2022/12/29 10:54:01;;;;;;;5.15;1.15;;;9.60;99.90;;;;;;5037146;28;20072;-70
2022/12/29 10:56:41;;;;;;;6.30;1.50;;;9.60;99.90;;;;;;5052354;28;20072;-71
2022/12/29 10:59:23;;;;;;;5.78;1.02;;;9.60;99.90;;;;;;5025426;28;20037;-71
2022/12/29 11:02:10;;;;;;;7.70;1.33;;;9.60;99.90;;;;;;5035301;28;20041;-71
2022/12/29 11:04:58;;;;;;;5.30;1.50;;;9.50;99.90;;;;;;5051625;28;20413;-70
2022/12/29 11:07:25;;;;;;;6.07;1.45;;;9.50;99.90;;;;;;5052004;28;20485;-71
2022/12/29 11:09:52;;;;;;;6.43;1.17;;;9.50;99.90;;;;;;5049821;28;20041;-71
2022/12/29 11:12:28;;;;;;;7.38;1.40;;;9.50;99.90;;;;;;5048421;28;20461;-71
2022/12/29 11:15:15;;;;;;;10.52;1.63;;;9.40;99.90;;;;;;5046295;28;20041;-71
2022/12/29 11:17:49;;;;;;;9.40;1.70;;;9.30;99.90;;;;;;5030987;28;20036;-71
2022/12/29 11:20:19;;;;;;;7.18;1.42;;;9.30;99.90;;;;;;5053011;28;20401;-71
2022/12/29 11:22:45;;;;;;;5.20;1.98;;;9.40;99.90;;;;;;5035888;28;20043;-69
2022/12/29 11:25:12;;;;;;;8.88;1.45;;;9.40;99.90;;;;;;5033742;28;20033;-69
2022/12/29 11:27:38;;;;;;;8.82;1.58;;;9.30;99.90;;;;;;5051332;28;20041;-70
2022/12/29 11:30:26;;;;;;;11.57;2.35;;;9.30;99.90;;;;;;5036125;28;20040;-70
2022/12/29 11:32:53;;;;;;;9.48;1.67;;;9.30;99.90;;;;;;5047953;28;20044;-71
2022/12/29 11:35:39;;;;;;;11.82;2.20;;;9.30;99.90;;;;;;5035800;28;20103;-70
2022/12/29 11:38:05;;;;;;;12.05;2.15;;;9.30;99.90;;;;;;5034485;28;20037;-70
2022/12/29 11:40:33;;;;;;;7.50;1.60;;;9.30;99.90;;;;;;5048371;28;20045;-70
2022/12/29 11:43:04;;;;;;;12.15;1.90;;;9.20;99.90;;;;;;5027240;28;20047;-71
2022/12/29 11:45:32;;;;;;;11.55;2.25;;;9.40;99.90;;;;;;5033197;28;20482;-70
2022/12/29 11:48:06;;;;;;;13.65;2.15;;;9.40;99.90;;;;;;5036603;28;20090;-70
2022/12/29 11:50:35;;;;;;;14.45;2.40;;;9.30;99.90;;;;;;5059375;28;20452;-71
2022/12/29 11:53:42;;;;;;;9.95;2.05;;;9.30;99.90;;;;;;5034152;28;20033;-71
2022/12/29 11:56:12;;;;;;;9.23;1.55;;;9.30;99.90;;;;;;5049176;28;20041;-70
2022/12/29 11:58:38;;;;;;;16.23;3.08;;;9.30;99.90;;;;;;5037581;28;20048;-70
2022/12/29 12:01:10;;;;;;;18.05;2.47;;;9.30;99.90;;;;;;5050083;28;20039;-70
2022/12/29 12:03:42;;;;;;;15.35;3.13;;;9.30;99.90;;;;;;5048644;28;20513;-71
2022/12/29 12:06:13;;;;;;;16.25;2.65;;;9.40;99.90;;;;;;5049037;28;20500;-71
2022/12/29 12:08:44;;;;;;;13.45;2.50;;;9.30;99.90;;;;;;5034550;28;20033;-70
2022/12/29 12:11:33;;;;;;;12.68;2.70;;;9.50;99.90;;;;;;5052277;28;20047;-71
2022/12/29 12:14:12;;;;;;;20.13;3.30;;;9.50;99.90;;;;;;5029663;28;20179;-71
2022/12/29 12:16:48;;;;;;;15.15;2.42;;;9.50;99.90;;;;;;5036998;28;20053;-70
2022/12/29 12:19:35;;;;;;;12.90;2.20;;;9.70;99.90;;;;;;5058699;28;20041;-70
2022/12/29 12:22:31;;;;;;;12.73;2.58;;;9.80;99.90;;;;;;5052208;28;20041;-70
2022/12/29 12:25:06;;;;;;;9.73;2.00;;;9.80;99.90;;;;;;5029831;28;20049;-70
2022/12/29 12:27:43;;;;;;;20.05;3.53;;;9.90;99.90;;;;;;5049353;28;20110;-71
2022/12/29 12:30:16;;;;;;;14.82;2.50;;;9.80;99.90;;;;;;5048075;28;20052;-71
2022/12/29 12:33:03;;;;;;;13.57;2.58;;;9.70;99.90;;;;;;5046193;28;20498;-70
2022/12/29 12:35:36;;;;;;;13.98;3.13;;;9.80;99.90;;;;;;5039691;28;20045;-71
2022/12/29 12:38:22;;;;;;;11.52;2.15;;;9.80;99.90;;;;;;5039758;28;20037;-70
2022/12/29 12:41:11;;;;;;;15.27;2.55;;;9.80;99.90;;;;;;5034793;28;20041;-71
2022/12/29 12:43:50;;;;;;;13.18;2.13;;;9.80;99.90;;;;;;5034896;28;20051;-70
2022/12/29 12:46:35;;;;;;;14.40;2.60;;;9.80;99.90;;;;;;5032583;28;20505;-70
2022/12/29 12:49:16;;;;;;;10.55;2.50;;;9.80;99.90;;;;;;5041446;28;20048;-70
2022/12/29 12:52:05;;;;;;;12.80;2.92;;;9.80;99.90;;;;;;5037993;28;20033;-70
2022/12/29 12:55:08;;;;;;;12.48;2.03;;;9.80;99.90;;;;;;5050129;28;20507;-70
2022/12/29 12:57:48;;;;;;;11.98;2.30;;;9.80;99.90;;;;;;5033312;28;20076;-70
2022/12/29 13:00:17;;;;;;;15.27;2.22;;;9.80;99.90;;;;;;5033696;28;20056;-70
2022/12/29 13:02:56;;;;;;;15.75;2.40;;;9.80;99.90;;;;;;5048948;28;20056;-71
2022/12/29 13:05:52;;;;;;;12.00;2.15;;;9.90;99.90;;;;;;5054365;28;20051;-71
2022/12/29 13:08:23;;;;;;;10.23;1.90;;;9.90;99.90;;;;;;5027287;28;20060;-70
2022/12/29 13:11:08;;;;;;;13.52;2.35;;;9.80;99.90;;;;;;5050289;28;20045;-70
2022/12/29 13:13:58;;;;;;;11.90;1.90;;;9.80;99.90;;;;;;5043949;28;20044;-70
2022/12/29 13:17:01;;;;;;;13.55;2.47;;;9.80;99.90;;;;;;5046082;28;20048;-71
2022/12/29 13:19:40;;;;;;;15.48;4.45;;;9.90;99.90;;;;;;5011714;28;20501;-71
2022/12/29 13:22:36;;;;;;;8.57;2.20;;;9.80;99.90;;;;;;5030467;28;20470;-70
2022/12/29 13:25:20;;;;;;;10.43;1.65;;;9.90;99.90;;;;;;5047625;28;20170;-71
2022/12/29 13:27:55;;;;;;;8.52;1.92;;;9.90;99.90;;;;;;5036028;28;20037;-70
2022/12/29 13:30:23;;;;;;;10.57;1.73;;;9.90;99.90;;;;;;5030420;28;20033;-71
2022/12/29 13:33:04;;;;;;;14.82;2.72;;;9.90;99.90;;;;;;5032135;28;20045;-70
2022/12/29 13:35:55;;;;;;;11.18;1.85;;;9.90;99.90;;;;;;5045978;28;20040;-70
2022/12/29 13:38:42;;;;;;;12.40;2.47;;;10.00;99.90;;;;;;5047142;28;20393;-70
2022/12/29 13:41:21;;;;;;;14.73;2.28;;;9.90;99.90;;;;;;5050244;28;20044;-70
2022/12/29 13:43:50;;;;;;;11.30;1.77;;;9.80;99.90;;;;;;5050059;28;20044;-70
2022/12/29 13:46:22;;;;;;;9.15;1.90;;;9.80;99.90;;;;;;5049744;28;20048;-71